sensor_id;sensor_type;location;lat;lon;timestamp;pressure;altitude;pressure_sealevel;temperature;humidity
48892;BME280;50130;52.150;5.236;2023-03-22T00:01:21;100726.0;;;11.43;87.04
48892;BME280;50130;52.150;5.236;2023-03-22T00:02:59;100721.0;;;11.37;87.9
48892;BME280;50130;52.150;5.236;2023-03-22T00:04:35;100725.0;;;11.41;87.55
48892;BME280;50130;52.150;5.236;2023-03-22T00:07:48;100713.0;;;11.17;88.53
48892;BME280;50130;52.150;5.236;2023-03-22T00:09:24;100717.0;;;11.29;88.06
48892;BME280;50130;52.150;5.236;2023-03-22T00:11:01;100712.0;;;11.34;88.06
48892;BME280;50130;52.150;5.236;2023-03-22T00:14:14;100706.0;;;11.33;88.25
48892;BME280;50130;52.150;5.236;2023-03-22T00:15:50;100698.0;;;11.33;88.11
48892;BME280;50130;52.150;5.236;2023-03-22T00:17:26;100707.0;;;11.38;87.39
48892;BME280;50130;52.150;5.236;2023-03-22T00:20:46;100698.0;;;11.45;87.39
48892;BME280;50130;52.150;5.236;2023-03-22T00:22:23;100699.0;;;11.39;87.23
48892;BME280;50130;52.150;5.236;2023-03-22T00:23:59;100696.0;;;11.4;87.09
48892;BME280;50130;52.150;5.236;2023-03-22T00:25:35;100695.0;;;11.43;87.32
48892;BME280;50130;52.150;5.236;2023-03-22T00:28:48;100696.0;;;11.39;87.21
48892;BME280;50130;52.150;5.236;2023-03-22T00:30:24;100694.0;;;11.49;86.93
48892;BME280;50130;52.150;5.236;2023-03-22T00:32:00;100696.0;;;11.52;86.7
48892;BME280;50130;52.150;5.236;2023-03-22T00:35:13;100700.0;;;11.28;87.8
48892;BME280;50130;52.150;5.236;2023-03-22T00:36:50;100699.0;;;11.31;87.18
48892;BME280;50130;52.150;5.236;2023-03-22T00:38:26;100693.0;;;11.46;87.05
48892;BME280;50130;52.150;5.236;2023-03-22T00:40:03;100687.0;;;11.44;86.61
48892;BME280;50130;52.150;5.236;2023-03-22T00:43:17;100685.0;;;11.24;87.84
48892;BME280;50130;52.150;5.236;2023-03-22T00:44:53;100683.0;;;11.26;87.45
48892;BME280;50130;52.150;5.236;2023-03-22T00:46:29;100684.0;;;11.34;86.82
48892;BME280;50130;52.150;5.236;2023-03-22T00:49:43;100678.0;;;11.36;86.88
48892;BME280;50130;52.150;5.236;2023-03-22T00:51:19;100676.0;;;11.42;86.45
48892;BME280;50130;52.150;5.236;2023-03-22T00:52:55;100674.0;;;11.37;86.67
48892;BME280;50130;52.150;5.236;2023-03-22T00:56:08;100669.0;;;11.31;87.0
48892;BME280;50130;52.150;5.236;2023-03-22T00:57:44;100667.0;;;11.3;86.93
48892;BME280;50130;52.150;5.236;2023-03-22T00:59:20;100664.0;;;11.26;87.06
48892;BME280;50130;52.150;5.236;2023-03-22T01:00:57;100661.0;;;11.16;87.11
48892;BME280;50130;52.150;5.236;2023-03-22T01:04:09;100657.0;;;11.08;87.28
48892;BME280;50130;52.150;5.236;2023-03-22T01:05:47;100650.0;;;11.17;87.25
48892;BME280;50130;52.150;5.236;2023-03-22T01:07:23;100647.0;;;11.21;86.98
48892;BME280;50130;52.150;5.236;2023-03-22T01:10:37;100644.0;;;11.15;87.22
48892;BME280;50130;52.150;5.236;2023-03-22T01:12:15;100638.0;;;11.16;87.5
48892;BME280;50130;52.150;5.236;2023-03-22T01:13:55;100633.0;;;11.16;87.38
48892;BME280;50130;52.150;5.236;2023-03-22T01:17:08;100631.0;;;11.12;87.57
48892;BME280;50130;52.150;5.236;2023-03-22T01:18:45;100635.0;;;11.17;87.19
48892;BME280;50130;52.150;5.236;2023-03-22T01:20:22;100625.0;;;11.14;87.32
48892;BME280;50130;52.150;5.236;2023-03-22T01:21:58;100614.0;;;10.97;87.13
48892;BME280;50130;52.150;5.236;2023-03-22T01:25:13;100612.0;;;11.09;87.17
48892;BME280;50130;52.150;5.236;2023-03-22T01:26:50;100615.0;;;11.08;87.52
48892;BME280;50130;52.150;5.236;2023-03-22T01:28:26;100605.0;;;11.11;87.09
48892;BME280;50130;52.150;5.236;2023-03-22T01:31:39;100607.0;;;11.04;86.82
48892;BME280;50130;52.150;5.236;2023-03-22T01:33:16;100603.0;;;11.09;87.02
48892;BME280;50130;52.150;5.236;2023-03-22T01:34:52;100607.0;;;11.07;87.35
48892;BME280;50130;52.150;5.236;2023-03-22T01:38:05;100600.0;;;11.03;87.13
48892;BME280;50130;52.150;5.236;2023-03-22T01:39:41;100598.0;;;11.05;87.45
48892;BME280;50130;52.150;5.236;2023-03-22T01:41:18;100590.0;;;10.96;87.01
48892;BME280;50130;52.150;5.236;2023-03-22T01:42:54;100585.0;;;10.99;87.18
48892;BME280;50130;52.150;5.236;2023-03-22T01:46:07;100580.0;;;11.02;87.06
48892;BME280;50130;52.150;5.236;2023-03-22T01:47:46;100574.0;;;11.02;87.05
48892;BME280;50130;52.150;5.236;2023-03-22T01:49:27;100571.0;;;11.04;87.37
48892;BME280;50130;52.150;5.236;2023-03-22T01:52:47;100568.0;;;11.08;87.22
48892;BME280;50130;52.150;5.236;2023-03-22T01:54:29;100566.0;;;11.09;86.66
48892;BME280;50130;52.150;5.236;2023-03-22T01:56:09;100562.0;;;11.12;86.7
48892;BME280;50130;52.150;5.236;2023-03-22T01:57:47;100558.0;;;11.03;86.9
48892;BME280;50130;52.150;5.236;2023-03-22T02:01:04;100561.0;;;11.01;86.93
48892;BME280;50130;52.150;5.236;2023-03-22T02:02:42;100557.0;;;10.99;86.98
48892;BME280;50130;52.150;5.236;2023-03-22T02:04:20;100558.0;;;11.03;86.92
48892;BME280;50130;52.150;5.236;2023-03-22T02:05:58;100546.0;;;11.05;87.05
48892;BME280;50130;52.150;5.236;2023-03-22T02:09:13;100543.0;;;11.09;86.75
48892;BME280;50130;52.150;5.236;2023-03-22T02:10:50;100536.0;;;11.13;86.53
48892;BME280;50130;52.150;5.236;2023-03-22T02:12:32;100533.0;;;11.08;86.97
48892;BME280;50130;52.150;5.236;2023-03-22T02:14:24;100526.0;;;11.14;86.77
48892;BME280;50130;52.150;5.236;2023-03-22T02:16:28;100527.0;;;11.1;87.1
48892;BME280;50130;52.150;5.236;2023-03-22T02:22:13;100517.0;;;11.11;87.31
48892;BME280;50130;52.150;5.236;2023-03-22T02:24:17;100514.0;;;11.15;87.2
48892;BME280;50130;52.150;5.236;2023-03-22T02:27:51;100509.0;;;11.2;87.27
48892;BME280;50130;52.150;5.236;2023-03-22T02:31:56;100505.0;;;11.11;87.82
48892;BME280;50130;52.150;5.236;2023-03-22T02:33:56;100494.0;;;11.26;87.2
48892;BME280;50130;52.150;5.236;2023-03-22T02:40:58;100492.0;;;11.28;87.56
48892;BME280;50130;52.150;5.236;2023-03-22T02:42:54;100489.0;;;11.23;87.83
48892;BME280;50130;52.150;5.236;2023-03-22T02:44:39;100478.0;;;11.19;88.37
48892;BME280;50130;52.150;5.236;2023-03-22T02:46:22;100483.0;;;11.22;88.48
48892;BME280;50130;52.150;5.236;2023-03-22T02:48:05;100482.0;;;11.28;88.53
48892;BME280;50130;52.150;5.236;2023-03-22T02:49:48;100480.0;;;11.21;88.96
48892;BME280;50130;52.150;5.236;2023-03-22T02:53:14;100480.0;;;11.28;89.04
48892;BME280;50130;52.150;5.236;2023-03-22T02:54:55;100473.0;;;11.34;89.02
48892;BME280;50130;52.150;5.236;2023-03-22T02:56:40;100475.0;;;11.31;89.62
48892;BME280;50130;52.150;5.236;2023-03-22T02:58:22;100474.0;;;11.41;89.62
48892;BME280;50130;52.150;5.236;2023-03-22T03:01:43;100470.0;;;11.42;89.55
48892;BME280;50130;52.150;5.236;2023-03-22T03:03:24;100463.0;;;11.45;89.8
48892;BME280;50130;52.150;5.236;2023-03-22T03:05:03;100462.0;;;11.39;89.95
48892;BME280;50130;52.150;5.236;2023-03-22T03:06:42;100458.0;;;11.34;90.66
48892;BME280;50130;52.150;5.236;2023-03-22T03:09:58;100460.0;;;11.45;90.47
48892;BME280;50130;52.150;5.236;2023-03-22T03:11:34;100466.0;;;11.34;90.9
48892;BME280;50130;52.150;5.236;2023-03-22T03:13:11;100464.0;;;11.39;91.0
48892;BME280;50130;52.150;5.236;2023-03-22T03:16:27;100472.0;;;11.32;91.77
48892;BME280;50130;52.150;5.236;2023-03-22T03:18:14;100467.0;;;11.29;92.23
48892;BME280;50130;52.150;5.236;2023-03-22T03:20:04;100465.0;;;11.34;92.16
48892;BME280;50130;52.150;5.236;2023-03-22T03:21:56;100469.0;;;11.29;92.49
48892;BME280;50130;52.150;5.236;2023-03-22T03:23:44;100465.0;;;11.31;92.36
48892;BME280;50130;52.150;5.236;2023-03-22T03:25:26;100466.0;;;11.31;92.61
48892;BME280;50130;52.150;5.236;2023-03-22T03:28:56;100464.0;;;11.33;92.54
48892;BME280;50130;52.150;5.236;2023-03-22T03:30:38;100457.0;;;11.32;92.72
48892;BME280;50130;52.150;5.236;2023-03-22T03:32:22;100464.0;;;11.3;92.9
48892;BME280;50130;52.150;5.236;2023-03-22T03:34:09;100463.0;;;11.37;92.78
48892;BME280;50130;52.150;5.236;2023-03-22T03:35:50;100456.0;;;11.21;93.63
48892;BME280;50130;52.150;5.236;2023-03-22T03:39:13;100460.0;;;11.36;93.36
48892;BME280;50130;52.150;5.236;2023-03-22T03:40:53;100464.0;;;11.57;92.44
48892;BME280;50130;52.150;5.236;2023-03-22T03:42:33;100462.0;;;11.42;92.92
48892;BME280;50130;52.150;5.236;2023-03-22T03:44:12;100455.0;;;11.41;93.27
48892;BME280;50130;52.150;5.236;2023-03-22T03:47:28;100456.0;;;11.43;93.45
48892;BME280;50130;52.150;5.236;2023-03-22T03:49:04;100459.0;;;11.49;93.1
48892;BME280;50130;52.150;5.236;2023-03-22T03:50:43;100456.0;;;11.43;93.51
48892;BME280;50130;52.150;5.236;2023-03-22T03:53:56;100455.0;;;11.4;93.67
48892;BME280;50130;52.150;5.236;2023-03-22T03:55:32;100456.0;;;11.4;93.81
48892;BME280;50130;52.150;5.236;2023-03-22T03:57:08;100456.0;;;11.48;93.88
48892;BME280;50130;52.150;5.236;2023-03-22T04:00:20;100460.0;;;11.67;92.98
48892;BME280;50130;52.150;5.236;2023-03-22T04:01:57;100457.0;;;11.66;93.15
48892;BME280;50130;52.150;5.236;2023-03-22T04:03:34;100458.0;;;11.52;93.65
48892;BME280;50130;52.150;5.236;2023-03-22T04:05:11;100457.0;;;11.58;93.43
48892;BME280;50130;52.150;5.236;2023-03-22T04:08:24;100460.0;;;11.54;93.56
48892;BME280;50130;52.150;5.236;2023-03-22T04:10:00;100455.0;;;11.58;93.51
48892;BME280;50130;52.150;5.236;2023-03-22T04:14:48;100457.0;;;11.66;92.89
48892;BME280;50130;52.150;5.236;2023-03-22T04:16:24;100455.0;;;11.77;92.69
48892;BME280;50130;52.150;5.236;2023-03-22T04:18:01;100449.0;;;11.73;92.76
48892;BME280;50130;52.150;5.236;2023-03-22T04:21:13;100442.0;;;11.7;92.97
48892;BME280;50130;52.150;5.236;2023-03-22T04:22:49;100445.0;;;11.68;93.32
48892;BME280;50130;52.150;5.236;2023-03-22T04:24:25;100444.0;;;11.62;93.42
48892;BME280;50130;52.150;5.236;2023-03-22T04:26:02;100445.0;;;11.68;93.16
48892;BME280;50130;52.150;5.236;2023-03-22T04:29:17;100444.0;;;11.78;92.88
48892;BME280;50130;52.150;5.236;2023-03-22T04:30:54;100433.0;;;11.74;92.96
48892;BME280;50130;52.150;5.236;2023-03-22T04:32:31;100428.0;;;11.66;93.07
48892;BME280;50130;52.150;5.236;2023-03-22T04:35:43;100427.0;;;11.54;93.84
48892;BME280;50130;52.150;5.236;2023-03-22T04:37:20;100430.0;;;11.67;93.21
48892;BME280;50130;52.150;5.236;2023-03-22T04:38:56;100430.0;;;11.65;93.29
48892;BME280;50130;52.150;5.236;2023-03-22T04:42:09;100431.0;;;11.67;92.91
48892;BME280;50130;52.150;5.236;2023-03-22T04:43:46;100422.0;;;11.68;92.8
48892;BME280;50130;52.150;5.236;2023-03-22T04:45:22;100422.0;;;11.58;93.2
48892;BME280;50130;52.150;5.236;2023-03-22T04:46:59;100427.0;;;11.69;92.75
48892;BME280;50130;52.150;5.236;2023-03-22T04:50:12;100417.0;;;11.66;92.9
48892;BME280;50130;52.150;5.236;2023-03-22T04:51:48;100425.0;;;11.67;92.75
48892;BME280;50130;52.150;5.236;2023-03-22T04:53:24;100420.0;;;11.63;92.99
48892;BME280;50130;52.150;5.236;2023-03-22T04:56:37;100417.0;;;11.66;92.65
48892;BME280;50130;52.150;5.236;2023-03-22T04:58:13;100421.0;;;11.67;92.4
48892;BME280;50130;52.150;5.236;2023-03-22T04:59:49;100416.0;;;11.7;92.44
48892;BME280;50130;52.150;5.236;2023-03-22T05:03:01;100410.0;;;11.69;92.39
48892;BME280;50130;52.150;5.236;2023-03-22T05:04:38;100410.0;;;11.75;92.41
48892;BME280;50130;52.150;5.236;2023-03-22T05:06:14;100408.0;;;11.65;92.35
48892;BME280;50130;52.150;5.236;2023-03-22T05:07:51;100402.0;;;11.6;92.68
48892;BME280;50130;52.150;5.236;2023-03-22T05:11:05;100405.0;;;11.55;92.61
48892;BME280;50130;52.150;5.236;2023-03-22T05:12:42;100408.0;;;11.62;92.47
48892;BME280;50130;52.150;5.236;2023-03-22T05:14:18;100406.0;;;11.65;92.42
48892;BME280;50130;52.150;5.236;2023-03-22T05:17:30;100399.0;;;11.54;92.87
48892;BME280;50130;52.150;5.236;2023-03-22T05:19:07;100399.0;;;11.44;93.24
48892;BME280;50130;52.150;5.236;2023-03-22T05:20:43;100405.0;;;11.46;93.28
48892;BME280;50130;52.150;5.236;2023-03-22T05:23:56;100402.0;;;11.42;93.67
48892;BME280;50130;52.150;5.236;2023-03-22T05:25:32;100400.0;;;11.37;93.41
48892;BME280;50130;52.150;5.236;2023-03-22T05:27:08;100397.0;;;11.38;93.47
48892;BME280;50130;52.150;5.236;2023-03-22T05:28:44;100391.0;;;11.37;93.08
48892;BME280;50130;52.150;5.236;2023-03-22T05:31:57;100396.0;;;11.51;92.83
48892;BME280;50130;52.150;5.236;2023-03-22T05:33:33;100398.0;;;11.52;92.4
48892;BME280;50130;52.150;5.236;2023-03-22T05:35:10;100396.0;;;11.44;92.76
48892;BME280;50130;52.150;5.236;2023-03-22T05:38:22;100393.0;;;11.37;93.25
48892;BME280;50130;52.150;5.236;2023-03-22T05:39:59;100391.0;;;11.48;92.68
48892;BME280;50130;52.150;5.236;2023-03-22T05:41:34;100392.0;;;11.32;93.23
48892;BME280;50130;52.150;5.236;2023-03-22T05:44:47;100390.0;;;11.35;93.44
48892;BME280;50130;52.150;5.236;2023-03-22T05:46:23;100391.0;;;11.39;93.0
48892;BME280;50130;52.150;5.236;2023-03-22T05:47:58;100386.0;;;11.37;93.2
48892;BME280;50130;52.150;5.236;2023-03-22T05:51:13;100382.0;;;11.35;93.06
48892;BME280;50130;52.150;5.236;2023-03-22T05:52:50;100374.0;;;11.36;93.38
48892;BME280;50130;52.150;5.236;2023-03-22T05:54:25;100372.0;;;11.32;93.46
48892;BME280;50130;52.150;5.236;2023-03-22T05:56:01;100370.0;;;11.39;93.3
48892;BME280;50130;52.150;5.236;2023-03-22T05:59:15;100375.0;;;11.25;93.36
48892;BME280;50130;52.150;5.236;2023-03-22T06:00:51;100372.0;;;11.35;93.24
48892;BME280;50130;52.150;5.236;2023-03-22T06:02:27;100375.0;;;11.43;92.77
48892;BME280;50130;52.150;5.236;2023-03-22T06:05:40;100375.0;;;11.47;92.53
48892;BME280;50130;52.150;5.236;2023-03-22T06:07:16;100370.0;;;11.42;92.27
48892;BME280;50130;52.150;5.236;2023-03-22T06:08:52;100376.0;;;11.54;92.08
48892;BME280;50130;52.150;5.236;2023-03-22T06:12:05;100372.0;;;11.5;91.86
48892;BME280;50130;52.150;5.236;2023-03-22T06:13:41;100376.0;;;11.41;91.83
48892;BME280;50130;52.150;5.236;2023-03-22T06:15:18;100373.0;;;11.48;91.77
48892;BME280;50130;52.150;5.236;2023-03-22T06:16:54;100375.0;;;11.51;91.8
48892;BME280;50130;52.150;5.236;2023-03-22T06:20:09;100373.0;;;11.51;91.6
48892;BME280;50130;52.150;5.236;2023-03-22T06:21:46;100377.0;;;11.64;91.1
48892;BME280;50130;52.150;5.236;2023-03-22T06:23:22;100374.0;;;11.57;91.23
48892;BME280;50130;52.150;5.236;2023-03-22T06:26:35;100378.0;;;11.57;91.32
48892;BME280;50130;52.150;5.236;2023-03-22T06:28:12;100382.0;;;11.5;91.83
48892;BME280;50130;52.150;5.236;2023-03-22T06:29:48;100380.0;;;11.59;91.37
48892;BME280;50130;52.150;5.236;2023-03-22T06:33:00;100378.0;;;11.67;91.16
48892;BME280;50130;52.150;5.236;2023-03-22T06:34:36;100375.0;;;11.63;90.41
48892;BME280;50130;52.150;5.236;2023-03-22T06:36:12;100381.0;;;11.75;90.08
48892;BME280;50130;52.150;5.236;2023-03-22T06:37:48;100383.0;;;11.73;89.95
48892;BME280;50130;52.150;5.236;2023-03-22T06:41:01;100387.0;;;11.76;89.86
48892;BME280;50130;52.150;5.236;2023-03-22T06:42:37;100378.0;;;11.74;89.84
48892;BME280;50130;52.150;5.236;2023-03-22T06:44:14;100377.0;;;11.83;89.13
48892;BME280;50130;52.150;5.236;2023-03-22T06:47:27;100380.0;;;11.78;89.46
48892;BME280;50130;52.150;5.236;2023-03-22T06:49:03;100381.0;;;12.0;89.02
48892;BME280;50130;52.150;5.236;2023-03-22T06:50:40;100385.0;;;11.93;88.75
48892;BME280;50130;52.150;5.236;2023-03-22T06:53:52;100383.0;;;11.92;88.37
48892;BME280;50130;52.150;5.236;2023-03-22T06:55:28;100388.0;;;11.94;88.58
48892;BME280;50130;52.150;5.236;2023-03-22T06:57:04;100385.0;;;11.97;88.55
48892;BME280;50130;52.150;5.236;2023-03-22T06:58:40;100386.0;;;11.9;87.94
48892;BME280;50130;52.150;5.236;2023-03-22T07:01:54;100388.0;;;11.94;87.87
48892;BME280;50130;52.150;5.236;2023-03-22T07:03:30;100384.0;;;12.11;87.54
48892;BME280;50130;52.150;5.236;2023-03-22T07:05:07;100378.0;;;12.11;86.76
48892;BME280;50130;52.150;5.236;2023-03-22T07:08:19;100381.0;;;12.14;86.8
48892;BME280;50130;52.150;5.236;2023-03-22T07:09:56;100386.0;;;12.16;86.76
48892;BME280;50130;52.150;5.236;2023-03-22T07:11:32;100388.0;;;12.19;86.7
48892;BME280;50130;52.150;5.236;2023-03-22T07:14:44;100383.0;;;12.14;86.76
48892;BME280;50130;52.150;5.236;2023-03-22T07:16:20;100391.0;;;12.03;86.43
48892;BME280;50130;52.150;5.236;2023-03-22T07:17:56;100389.0;;;12.11;86.62
48892;BME280;50130;52.150;5.236;2023-03-22T07:21:09;100389.0;;;12.09;86.33
48892;BME280;50130;52.150;5.236;2023-03-22T07:22:45;100387.0;;;12.13;86.54
48892;BME280;50130;52.150;5.236;2023-03-22T07:24:20;100382.0;;;12.19;86.26
48892;BME280;50130;52.150;5.236;2023-03-22T07:25:56;100388.0;;;12.11;86.21
48892;BME280;50130;52.150;5.236;2023-03-22T07:29:08;100380.0;;;12.3;85.98
48892;BME280;50130;52.150;5.236;2023-03-22T07:30:45;100375.0;;;12.27;85.91
48892;BME280;50130;52.150;5.236;2023-03-22T07:32:21;100383.0;;;12.23;86.68
48892;BME280;50130;52.150;5.236;2023-03-22T07:35:34;100381.0;;;12.06;86.17
48892;BME280;50130;52.150;5.236;2023-03-22T07:37:10;100383.0;;;12.06;86.46
48892;BME280;50130;52.150;5.236;2023-03-22T07:38:46;100376.0;;;12.09;85.61
48892;BME280;50130;52.150;5.236;2023-03-22T07:42:00;100372.0;;;12.19;86.51
48892;BME280;50130;52.150;5.236;2023-03-22T07:43:36;100376.0;;;12.23;85.56
48892;BME280;50130;52.150;5.236;2023-03-22T07:45:12;100376.0;;;12.33;86.25
48892;BME280;50130;52.150;5.236;2023-03-22T07:46:48;100374.0;;;12.37;85.17
48892;BME280;50130;52.150;5.236;2023-03-22T07:50:00;100376.0;;;12.46;85.08
48892;BME280;50130;52.150;5.236;2023-03-22T07:51:37;100370.0;;;12.51;84.49
48892;BME280;50130;52.150;5.236;2023-03-22T07:53:14;100372.0;;;12.67;84.65
48892;BME280;50130;52.150;5.236;2023-03-22T07:56:26;100369.0;;;12.73;83.97
48892;BME280;50130;52.150;5.236;2023-03-22T07:58:02;100367.0;;;12.7;83.09
48892;BME280;50130;52.150;5.236;2023-03-22T07:59:39;100368.0;;;12.65;82.77
48892;BME280;50130;52.150;5.236;2023-03-22T08:02:51;100370.0;;;12.84;83.25
48892;BME280;50130;52.150;5.236;2023-03-22T08:04:27;100370.0;;;12.83;82.71
48892;BME280;50130;52.150;5.236;2023-03-22T08:06:05;100374.0;;;12.68;82.35
48892;BME280;50130;52.150;5.236;2023-03-22T08:07:43;100372.0;;;12.85;82.34
48892;BME280;50130;52.150;5.236;2023-03-22T08:10:55;100391.0;;;12.75;81.47
48892;BME280;50130;52.150;5.236;2023-03-22T08:12:31;100380.0;;;12.71;82.55
48892;BME280;50130;52.150;5.236;2023-03-22T08:14:07;100377.0;;;12.77;81.98
48892;BME280;50130;52.150;5.236;2023-03-22T08:17:20;100376.0;;;12.85;82.28
48892;BME280;50130;52.150;5.236;2023-03-22T08:18:57;100368.0;;;12.95;81.93
48892;BME280;50130;52.150;5.236;2023-03-22T08:20:33;100375.0;;;12.9;81.11
48892;BME280;50130;52.150;5.236;2023-03-22T08:23:45;100382.0;;;12.86;81.66
48892;BME280;50130;52.150;5.236;2023-03-22T08:25:21;100373.0;;;12.87;81.39
48892;BME280;50130;52.150;5.236;2023-03-22T08:26:57;100378.0;;;12.87;81.24
48892;BME280;50130;52.150;5.236;2023-03-22T08:30:10;100368.0;;;12.96;81.83
48892;BME280;50130;52.150;5.236;2023-03-22T08:31:46;100371.0;;;12.88;80.38
48892;BME280;50130;52.150;5.236;2023-03-22T08:33:23;100380.0;;;12.77;81.33
48892;BME280;50130;52.150;5.236;2023-03-22T08:34:59;100371.0;;;12.79;81.22
48892;BME280;50130;52.150;5.236;2023-03-22T08:38:12;100383.0;;;12.83;81.83
48892;BME280;50130;52.150;5.236;2023-03-22T08:39:49;100376.0;;;12.86;82.42
48892;BME280;50130;52.150;5.236;2023-03-22T08:41:26;100389.0;;;12.85;82.19
48892;BME280;50130;52.150;5.236;2023-03-22T08:44:39;100368.0;;;12.79;81.2
48892;BME280;50130;52.150;5.236;2023-03-22T08:46:15;100368.0;;;12.88;82.17
48892;BME280;50130;52.150;5.236;2023-03-22T08:47:51;100372.0;;;12.93;80.75
48892;BME280;50130;52.150;5.236;2023-03-22T08:51:04;100369.0;;;12.96;81.33
48892;BME280;50130;52.150;5.236;2023-03-22T08:52:40;100365.0;;;12.93;80.45
48892;BME280;50130;52.150;5.236;2023-03-22T08:54:17;100378.0;;;12.86;81.38
48892;BME280;50130;52.150;5.236;2023-03-22T08:55:53;100374.0;;;12.98;80.7
48892;BME280;50130;52.150;5.236;2023-03-22T08:59:06;100369.0;;;13.03;80.55
48892;BME280;50130;52.150;5.236;2023-03-22T09:00:43;100383.0;;;12.99;81.41
48892;BME280;50130;52.150;5.236;2023-03-22T09:02:19;100376.0;;;12.93;80.11
48892;BME280;50130;52.150;5.236;2023-03-22T09:05:32;100399.0;;;12.8;80.91
48892;BME280;50130;52.150;5.236;2023-03-22T09:07:08;100378.0;;;12.81;80.66
48892;BME280;50130;52.150;5.236;2023-03-22T09:08:44;100385.0;;;12.78;82.78
48892;BME280;50130;52.150;5.236;2023-03-22T09:11:56;100380.0;;;12.85;81.99
48892;BME280;50130;52.150;5.236;2023-03-22T09:13:32;100376.0;;;12.94;82.77
48892;BME280;50130;52.150;5.236;2023-03-22T09:15:09;100386.0;;;12.93;83.82
48892;BME280;50130;52.150;5.236;2023-03-22T09:16:46;100381.0;;;12.86;84.52
48892;BME280;50130;52.150;5.236;2023-03-22T09:20:00;100380.0;;;12.87;84.98
48892;BME280;50130;52.150;5.236;2023-03-22T09:21:36;100383.0;;;12.75;85.6
48892;BME280;50130;52.150;5.236;2023-03-22T09:23:13;100391.0;;;12.73;86.95
48892;BME280;50130;52.150;5.236;2023-03-22T09:26:25;100383.0;;;12.81;86.99
48892;BME280;50130;52.150;5.236;2023-03-22T09:28:02;100393.0;;;12.66;87.53
48892;BME280;50130;52.150;5.236;2023-03-22T09:29:39;100385.0;;;12.43;88.27
48892;BME280;50130;52.150;5.236;2023-03-22T09:32:52;100380.0;;;12.38;89.23
48892;BME280;50130;52.150;5.236;2023-03-22T09:34:29;100385.0;;;12.42;89.41
48892;BME280;50130;52.150;5.236;2023-03-22T09:36:06;100376.0;;;12.36;91.02
48892;BME280;50130;52.150;5.236;2023-03-22T09:37:42;100378.0;;;12.31;91.37
48892;BME280;50130;52.150;5.236;2023-03-22T09:40:57;100376.0;;;12.27;91.91
48892;BME280;50130;52.150;5.236;2023-03-22T09:42:38;100374.0;;;12.21;92.62
48892;BME280;50130;52.150;5.236;2023-03-22T09:44:20;100367.0;;;11.93;93.49
48892;BME280;50130;52.150;5.236;2023-03-22T09:46:06;100367.0;;;11.92;92.62
48892;BME280;50130;52.150;5.236;2023-03-22T09:49:28;100367.0;;;12.01;93.02
48892;BME280;50130;52.150;5.236;2023-03-22T09:51:19;100371.0;;;12.02;93.33
48892;BME280;50130;52.150;5.236;2023-03-22T09:52:58;100363.0;;;12.03;93.06
48892;BME280;50130;52.150;5.236;2023-03-22T09:54:37;100368.0;;;12.02;92.88
48892;BME280;50130;52.150;5.236;2023-03-22T09:58:02;100369.0;;;12.1;92.68
48892;BME280;50130;52.150;5.236;2023-03-22T09:59:46;100356.0;;;12.02;92.61
48892;BME280;50130;52.150;5.236;2023-03-22T10:01:31;100362.0;;;12.12;93.75
48892;BME280;50130;52.150;5.236;2023-03-22T10:03:18;100357.0;;;12.0;94.25
48892;BME280;50130;52.150;5.236;2023-03-22T10:05:07;100367.0;;;11.99;94.05
48892;BME280;50130;52.150;5.236;2023-03-22T10:08:35;100366.0;;;11.98;94.48
48892;BME280;50130;52.150;5.236;2023-03-22T10:10:21;100364.0;;;11.91;94.46
48892;BME280;50130;52.150;5.236;2023-03-22T10:12:00;100361.0;;;12.09;95.11
48892;BME280;50130;52.150;5.236;2023-03-22T10:13:52;100370.0;;;12.11;95.07
48892;BME280;50130;52.150;5.236;2023-03-22T10:15:36;100360.0;;;11.89;95.09
48892;BME280;50130;52.150;5.236;2023-03-22T10:18:57;100361.0;;;11.8;95.69
48892;BME280;50130;52.150;5.236;2023-03-22T10:20:41;100355.0;;;11.99;95.97
48892;BME280;50130;52.150;5.236;2023-03-22T10:22:25;100359.0;;;12.11;96.02
48892;BME280;50130;52.150;5.236;2023-03-22T10:24:11;100357.0;;;12.1;95.7
48892;BME280;50130;52.150;5.236;2023-03-22T10:25:51;100360.0;;;12.14;95.64
48892;BME280;50130;52.150;5.236;2023-03-22T10:29:11;100365.0;;;12.11;95.25
48892;BME280;50130;52.150;5.236;2023-03-22T10:30:53;100363.0;;;12.18;95.69
48892;BME280;50130;52.150;5.236;2023-03-22T10:32:35;100366.0;;;12.03;95.59
48892;BME280;50130;52.150;5.236;2023-03-22T10:34:19;100355.0;;;12.05;95.29
48892;BME280;50130;52.150;5.236;2023-03-22T10:37:37;100364.0;;;11.98;96.37
48892;BME280;50130;52.150;5.236;2023-03-22T10:39:26;100365.0;;;12.04;95.44
48892;BME280;50130;52.150;5.236;2023-03-22T10:41:08;100369.0;;;12.14;95.64
48892;BME280;50130;52.150;5.236;2023-03-22T10:42:51;100369.0;;;11.95;96.32
48892;BME280;50130;52.150;5.236;2023-03-22T10:46:13;100369.0;;;12.03;97.29
48892;BME280;50130;52.150;5.236;2023-03-22T10:47:56;100362.0;;;12.09;97.39
48892;BME280;50130;52.150;5.236;2023-03-22T10:49:36;100369.0;;;12.07;97.19
48892;BME280;50130;52.150;5.236;2023-03-22T10:51:22;100366.0;;;12.11;96.78
48892;BME280;50130;52.150;5.236;2023-03-22T10:53:03;100351.0;;;12.05;96.73
48892;BME280;50130;52.150;5.236;2023-03-22T10:56:18;100353.0;;;11.98;96.45
48892;BME280;50130;52.150;5.236;2023-03-22T10:57:59;100355.0;;;12.0;96.51
48892;BME280;50130;52.150;5.236;2023-03-22T10:59:46;100351.0;;;12.04;96.89
48892;BME280;50130;52.150;5.236;2023-03-22T11:01:26;100351.0;;;11.93;97.21
48892;BME280;50130;52.150;5.236;2023-03-22T11:04:46;100350.0;;;12.01;97.64
48892;BME280;50130;52.150;5.236;2023-03-22T11:06:24;100350.0;;;11.94;97.63
48892;BME280;50130;52.150;5.236;2023-03-22T11:08:02;100342.0;;;11.98;97.5
48892;BME280;50130;52.150;5.236;2023-03-22T11:11:18;100346.0;;;11.98;97.67
48892;BME280;50130;52.150;5.236;2023-03-22T11:13:10;100351.0;;;12.05;96.67
48892;BME280;50130;52.150;5.236;2023-03-22T11:14:49;100346.0;;;12.06;97.71
48892;BME280;50130;52.150;5.236;2023-03-22T11:16:27;100347.0;;;12.22;98.01
48892;BME280;50130;52.150;5.236;2023-03-22T11:18:06;100357.0;;;12.15;97.29